Terminal Aerodrome Forecast
Issued by NWS Upton, NY

Home | Current Version | Previous Version | Text Only | Print | Product List | Glossary On
Versions: 1 2 3 4 5 6 7 8 9 10 11 12 13 14 15 16 17 18 19 20 21 22 23 24 25 26 27 28 29 30
000
FTUS41 KOKX 280740 AAA
TAFBDR
TAF AMD
KBDR 280740Z 2808/2906 30004KT P6SM SKC
      TEMPO 2808/2810 3SM BR
     FM281000 30006KT P6SM SKC
     FM281600 27009G16KT P6SM FEW250
     FM282200 25006KT P6SM FEW200
     FM290000 22008KT P6SM FEW060=

USA.gov is the U.S. government's official web portal to all federal, state and local government web resources and services.